^^
Grace C. Lehan Memorial Weather Station Historical Data
Daily Summary for January 26, 2021 Units:  English    Metric   Both
Daily Weekly Monthly Yearly
  High: Low: Average:
Temperature: 73.6 °F 56.2 °F 63.8 °F
Dew Point: 58.5 °F 49.4 °F 53.3 °F
Humidity: 94% 45.8% 71%
Wind Speed: 9.2mph 0mph 1.9mph
Wind Gust: 22mph - -
Wind- - WNW
Pressure: 29.90 in 29.77 in -
Precipitation: 0.00 in    
 
 
Tabular Data for January 26, 2021
Time Temperature Dew Point Pressure Wind Wind Speed Wind Gust Humidity Rainfall Rate (Hourly) solar
00:04 61.4 °F 58.5 °F 29.84 in Calm     90% 0.00 in 0 W/m2
00:09 61.4 °F 58.5 °F 29.84 in Calm     90% 0.00 in 0 W/m2
00:14 61.3 °F 58.4 °F 29.84 in Calm     90% 0.00 in 0 W/m2
00:19 61.3 °F 58.3 °F 29.83 in Calm     90% 0.00 in 0 W/m2
00:24 61.2 °F 58.3 °F 29.83 in Calm     90% 0.00 in 0 W/m2
00:29 61.2 °F 58.2 °F 29.83 in Calm     90% 0.00 in 0 W/m2
00:34 61.1 °F 58.4 °F 29.83 in Calm     90.7% 0.00 in 0 W/m2
00:39 61 °F 58.4 °F 29.83 in Calm     91% 0.00 in 0 W/m2
00:44 60.9 °F 58.3 °F 29.83 in Calm     91% 0.00 in 0 W/m2
00:49 60.8 °F 58.2 °F 29.83 in Calm     91% 0.00 in 0 W/m2
00:54 60.7 °F 58.1 °F 29.83 in Calm     91% 0.00 in 0 W/m2
00:59 60.6 °F 58 °F 29.83 in Calm     91% 0.00 in 0 W/m2
01:04 60.5 °F 57.9 °F 29.83 in Calm     91% 0.00 in 0 W/m2
01:09 60.4 °F 57.8 °F 29.83 in Calm     91% 0.00 in 0 W/m2
01:14 60.4 °F 58 °F 29.82 in Calm     91.9% 0.00 in 0 W/m2
01:19 60.2 °F 57.9 °F 29.82 in Calm     92% 0.00 in 0 W/m2
01:24 60.1 °F 57.8 °F 29.82 in Calm     92% 0.00 in 0 W/m2
01:29 60 °F 57.7 °F 29.82 in Calm     92% 0.00 in 0 W/m2
01:34 59.9 °F 57.6 °F 29.82 in Calm     92% 0.00 in 0 W/m2
01:39 59.8 °F 57.5 °F 29.82 in Calm     92% 0.00 in 0 W/m2
01:44 59.7 °F 57.3 °F 29.82 in Calm     92% 0.00 in 0 W/m2
01:49 59.5 °F 57.2 °F 29.82 in Calm     92% 0.00 in 0 W/m2
01:54 59.5 °F 57.1 °F 29.81 in Calm     92% 0.00 in 0 W/m2
01:59 59.4 °F 57.1 °F 29.81 in Calm     92% 0.00 in 0 W/m2
02:04 59.3 °F 57 °F 29.81 in Calm     92% 0.00 in 0 W/m2
02:09 59.2 °F 57.2 °F 29.81 in Calm     93% 0.00 in 0 W/m2
02:14 59.1 °F 57.1 °F 29.81 in Calm     93% 0.00 in 0 W/m2
02:19 59.1 °F 57.1 °F 29.81 in Calm     93% 0.00 in 0 W/m2
02:24 59 °F 57 °F 29.81 in Calm     93% 0.00 in 0 W/m2
02:29 59 °F 57 °F 29.80 in Calm     93% 0.00 in 0 W/m2
02:34 58.9 °F 56.9 °F 29.80 in Calm     93% 0.00 in 0 W/m2
02:39 58.9 °F 56.8 °F 29.80 in Calm     93% 0.00 in 0 W/m2
02:44 58.8 °F 56.8 °F 29.80 in Calm     93% 0.00 in 0 W/m2
02:49 58.8 °F 56.8 °F 29.80 in Calm     93% 0.00 in 0 W/m2
02:54 58.7 °F 56.7 °F 29.80 in Calm     93% 0.00 in 0 W/m2
02:59 58.7 °F 56.7 °F 29.80 in Calm     93% 0.00 in 0 W/m2
03:03 58.6 °F 56.6 °F 29.80 in Calm     93% 0.00 in 0 W/m2
03:09 58.6 °F 56.9 °F 29.80 in Calm     94% 0.00 in 0 W/m2
03:14 58.6 °F 56.8 °F 29.80 in Calm     93.7% 0.00 in 0 W/m2
03:19 58.6 °F 56.7 °F 29.80 in Calm     93.3% 0.00 in 0 W/m2
03:24 58.6 °F 56.9 °F 29.80 in Calm     94% 0.00 in 0 W/m2
03:29 58.5 °F 56.8 °F 29.80 in Calm     94% 0.00 in 0 W/m2
03:34 58.5 °F 56.8 °F 29.79 in Calm     94% 0.00 in 0 W/m2
03:39 58.5 °F 56.8 °F 29.79 in Calm     94% 0.00 in 0 W/m2
03:44 58.4 °F 56.7 °F 29.79 in Calm     94% 0.00 in 0 W/m2
03:49 58.4 °F 56.6 °F 29.79 in Calm     94% 0.00 in 0 W/m2
03:54 58.3 °F 56.6 °F 29.79 in Calm     94% 0.00 in 0 W/m2
03:59 58.2 °F 56.5 °F 29.79 in Calm     94% 0.00 in 0 W/m2
04:09 58.1 °F 56.4 °F 29.79 in Calm     94% 0.00 in 0 W/m2
04:14 58.1 °F 56.4 °F 29.78 in Calm     94% 0.00 in 0 W/m2
04:19 58.1 °F 56.4 °F 29.78 in Calm     94% 0.00 in 0 W/m2
04:24 58 °F 56.3 °F 29.78 in Calm     94% 0.00 in 0 W/m2
04:29 58 °F 56.3 °F 29.78 in Calm     94% 0.00 in 0 W/m2
04:34 58 °F 56.3 °F 29.78 in Calm     94% 0.00 in 0 W/m2
04:39 58 °F 56.3 °F 29.78 in Calm     94% 0.00 in 0 W/m2
04:44 57.9 °F 56.2 °F 29.78 in Calm     94% 0.00 in 0 W/m2
04:49 57.9 °F 56.2 °F 29.78 in Calm     94% 0.00 in 0 W/m2
04:54 57.9 °F 56.2 °F 29.77 in Calm     94% 0.00 in 0 W/m2
04:59 57.9 °F 56.2 °F 29.77 in Calm     94% 0.00 in 0 W/m2
05:04 57.9 °F 56.2 °F 29.77 in Calm     94% 0.00 in 0 W/m2
05:09 57.9 °F 56.2 °F 29.77 in Calm     94% 0.00 in 0 W/m2
05:14 57.9 °F 56.2 °F 29.77 in Calm     94% 0.00 in 0 W/m2
05:19 57.8 °F 56.1 °F 29.77 in Calm     94% 0.00 in 0 W/m2
05:24 57.8 °F 56.1 °F 29.77 in Calm     94% 0.00 in 0 W/m2
05:29 57.7 °F 56 °F 29.77 in Calm     94% 0.00 in 0 W/m2
05:34 57.6 °F 55.9 °F 29.77 in Calm     94% 0.00 in 0 W/m2
05:39 57.5 °F 55.8 °F 29.78 in Calm     94% 0.00 in 0 W/m2
05:44 57.5 °F 55.7 °F 29.78 in Calm     94% 0.00 in 0 W/m2
05:49 57.4 °F 55.6 °F 29.78 in Calm     94% 0.00 in 0 W/m2
05:54 57.3 °F 55.6 °F 29.78 in Calm     94% 0.00 in 0 W/m2
05:59 57.2 °F 55.5 °F 29.78 in Calm     94% 0.00 in 0 W/m2
06:04 57.1 °F 55.4 °F 29.78 in Calm     94% 0.00 in 0 W/m2
06:09 57.1 °F 55.4 °F 29.79 in NNE 0.2 mph 5 mph 94% 0.00 in 0 W/m2
06:14 57.1 °F 55.4 °F 29.79 in Calm   5 mph 94% 0.00 in 0 W/m2
06:19 57.2 °F 55.5 °F 29.79 in Calm   5 mph 94% 0.00 in 0 W/m2
06:24 57.3 °F 55.6 °F 29.79 in Calm   5 mph 94% 0.00 in 0 W/m2
06:29 57.5 °F 55.8 °F 29.78 in NNE 0.8 mph 5 mph 94% 0.00 in 0 W/m2
06:34 57.7 °F 56 °F 29.78 in Calm   5 mph 94% 0.00 in 0 W/m2
06:39 57.9 °F 55.8 °F 29.78 in Calm   1 mph 93% 0.00 in 0 W/m2
06:44 58 °F 56 °F 29.78 in NNE 0.1 mph 2 mph 93% 0.00 in 0 W/m2
06:49 58.2 °F 56 °F 29.78 in Calm   2 mph 92.5% 0.00 in 0 W/m2
06:54 58.3 °F 56 °F 29.78 in Calm   2 mph 92% 0.00 in 0 W/m2
06:59 58.3 °F 56 °F 29.79 in Calm   2 mph 92% 0.00 in 12 W/m2
07:04 58.4 °F 56.1 °F 29.79 in Calm   2 mph 92% 0.00 in 14 W/m2
07:09 58.4 °F 56.1 °F 29.79 in NNE 0.4 mph 4 mph 92% 0.00 in 14 W/m2
07:14 58.5 °F 56.2 °F 29.79 in NNW 1.6 mph 6 mph 92% 0.00 in 14 W/m2
07:19 58.6 °F 56.2 °F 29.79 in NNW 0.5 mph 6 mph 91.5% 0.00 in 12 W/m2
07:24 58.8 °F 56.3 °F 29.79 in NW 1 mph 6 mph 91.2% 0.00 in 14 W/m2
07:29 59.1 °F 56.4 °F 29.79 in Calm   6 mph 91% 0.00 in 16 W/m2
07:34 59.2 °F 56.6 °F 29.79 in NW 0.2 mph 6 mph 91% 0.00 in 16 W/m2
07:39 59.4 °F 56.5 °F 29.79 in NNW 1.4 mph 10 mph 90.1% 0.00 in 19 W/m2
07:44 59.7 °F 56.7 °F 29.80 in NNW 0.5 mph 10 mph 89.8% 0.00 in 19 W/m2
07:49 60 °F 56.7 °F 29.80 in Calm   10 mph 89% 0.00 in 19 W/m2
07:54 60.2 °F 56.8 °F 29.80 in Calm   10 mph 88.5% 0.00 in 21 W/m2
07:59 60.5 °F 56.7 °F 29.80 in North 0.3 mph 10 mph 87.5% 0.00 in 23 W/m2
08:00 60.6 °F 57 °F 29.80 in Calm   10 mph 88% 0.00 in 23 W/m2
08:09 61.4 °F 57.7 °F 29.80 in NW 0.6 mph 6 mph 87.7% 0.00 in 26 W/m2
08:14 61.6 °F 57.3 °F 29.80 in WNW 2.1 mph 9 mph 85.9% 0.00 in 28 W/m2
08:19 61.8 °F 56.5 °F 29.80 in NNW 1.6 mph 9 mph 82.9% 0.00 in 28 W/m2
08:24 62.1 °F 56 °F 29.80 in NNW 3.1 mph 9 mph 80.4% 0.00 in 28 W/m2
08:29 62.4 °F 55.8 °F 29.80 in NNW 0.7 mph 9 mph 78.8% 0.00 in 32 W/m2
08:34 62.7 °F 55.6 °F 29.80 in NNW 1.2 mph 9 mph 77.5% 0.00 in 37 W/m2
08:39 63 °F 55.2 °F 29.81 in NW 2.9 mph 9 mph 75.6% 0.00 in 42 W/m2
08:44 63.3 °F 55 °F 29.81 in NW 1.9 mph 9 mph 74.3% 0.00 in 58 W/m2
08:49 63.6 °F 54.5 °F 29.81 in NW 3.6 mph 10 mph 72.3% 0.00 in 58 W/m2
08:54 63.7 °F 54.3 °F 29.81 in WNW 2.6 mph 10 mph 71.5% 0.00 in 60 W/m2
08:59 63.9 °F 54.3 °F 29.81 in WNW 3.9 mph 10 mph 70.9% 0.00 in 399 W/m2
09:04 64.2 °F 54.4 °F 29.81 in WNW 3.1 mph 11 mph 70.5% 0.00 in 420 W/m2
09:09 64.8 °F 54.1 °F 29.81 in NW 2.3 mph 11 mph 68.4% 0.00 in 436 W/m2
09:14 65.6 °F 53.9 °F 29.81 in NW 4.9 mph 11 mph 65.9% 0.00 in 448 W/m2
09:19 66.5 °F 53.8 °F 29.81 in WNW 2.5 mph 11 mph 63.5% 0.00 in 462 W/m2
09:24 67.4 °F 53.9 °F 29.81 in WNW 3.4 mph 13 mph 62% 0.00 in 480 W/m2
09:29 68.2 °F 54.2 °F 29.80 in NW 2.2 mph 13 mph 60.9% 0.00 in 494 W/m2
09:34 68.8 °F 54 °F 29.80 in WNW 1.1 mph 13 mph 59.2% 0.00 in 504 W/m2
09:39 69.6 °F 54.4 °F 29.81 in WNW 2.6 mph 7 mph 58.5% 0.00 in 520 W/m2
09:44 70.2 °F 52.6 °F 29.81 in WNW 5.2 mph 11 mph 53.8% 0.00 in 538 W/m2
09:49 70.4 °F 53.1 °F 29.81 in NW 3.1 mph 11 mph 54.3% 0.00 in 548 W/m2
09:54 70.8 °F 53.5 °F 29.81 in NNW 0.7 mph 11 mph 54.4% 0.00 in 563 W/m2
09:59 71.3 °F 54 °F 29.82 in NW 2.9 mph 11 mph 54.4% 0.00 in 571 W/m2
10:04 71.6 °F 53.5 °F 29.82 in WNW 4.4 mph 13 mph 52.8% 0.00 in 582 W/m2
10:09 71.6 °F 52.5 °F 29.82 in WNW 3.6 mph 13 mph 50.9% 0.00 in 596 W/m2
10:14 71.8 °F 53.1 °F 29.82 in WNW 2 mph 13 mph 51.7% 0.00 in 608 W/m2
10:19 71.9 °F 52.2 °F 29.82 in West 3.5 mph 15 mph 50% 0.00 in 613 W/m2
10:24 72 °F 53.8 °F 29.81 in NW 2.6 mph 15 mph 52.8% 0.00 in 622 W/m2
10:29 72.5 °F 53.1 °F 29.82 in WNW 4.2 mph 15 mph 50.6% 0.00 in 638 W/m2
10:34 72.7 °F 52.9 °F 29.81 in NNW 3.1 mph 15 mph 49.9% 0.00 in 650 W/m2
10:39 72.9 °F 52.8 °F 29.81 in NNW 4.7 mph 11 mph 49.4% 0.00 in 664 W/m2
10:44 73.1 °F 53.3 °F 29.81 in NW 3 mph 11 mph 49.9% 0.00 in 677 W/m2
10:49 73.4 °F 53.2 °F 29.81 in NW 2.9 mph 11 mph 49.2% 0.00 in 684 W/m2
10:54 73.6 °F 51.5 °F 29.81 in NW 4.4 mph 14 mph 45.9% 0.00 in 694 W/m2
10:59 73.2 °F 51.6 °F 29.81 in WNW 6.9 mph 14 mph 46.5% 0.00 in 707 W/m2
11:04 72.7 °F 50.6 °F 29.81 in WNW 7.3 mph 14 mph 45.8% 0.00 in 712 W/m2
11:09 72.4 °F 51.5 °F 29.81 in WNW 5.9 mph 14 mph 47.8% 0.00 in 724 W/m2
11:14 72.4 °F 50.7 °F 29.81 in NW 7 mph 17 mph 46.4% 0.00 in 728 W/m2
11:19 72.3 °F 51.1 °F 29.81 in WNW 6.3 mph 17 mph 47.3% 0.00 in 737 W/m2
11:24 72.4 °F 52 °F 29.81 in WNW 6.2 mph 17 mph 48.7% 0.00 in 740 W/m2
11:29 72.4 °F 51.5 °F 29.81 in WNW 6.5 mph 17 mph 47.9% 0.00 in 740 W/m2
11:34 72.3 °F 52.5 °F 29.81 in WNW 3.5 mph 17 mph 49.7% 0.00 in 596 W/m2
11:39 72.4 °F 52.3 °F 29.81 in WNW 4.2 mph 14 mph 49.1% 0.00 in 413 W/m2
11:44 72.3 °F 50.6 °F 29.81 in WNW 8.6 mph 17 mph 46.4% 0.00 in 316 W/m2
11:49 71.7 °F 50.8 °F 29.81 in WNW 5.2 mph 17 mph 47.7% 0.00 in 100 W/m2
11:54 71.4 °F 50.7 °F 29.81 in WNW 4.2 mph 17 mph 48.1% 0.00 in 127 W/m2
11:59 71.3 °F 51.3 °F 29.80 in NW 4.7 mph 17 mph 49.2% 0.00 in 181 W/m2
12:09 71 °F 50.7 °F 29.80 in WNW 8.2 mph 19 mph 48.6% 0.00 in 109 W/m2
12:14 70.7 °F 50.6 °F 29.80 in WNW 8.5 mph 19 mph 49% 0.00 in 153 W/m2
12:19 70.5 °F 50.8 °F 29.80 in WNW 7 mph 19 mph 49.8% 0.00 in 202 W/m2
12:24 70.3 °F 49.9 °F 29.81 in WNW 8.4 mph 19 mph 48.3% 0.00 in 306 W/m2
12:29 70.3 °F 50.8 °F 29.80 in WNW 4.6 mph 19 mph 50% 0.00 in 306 W/m2
12:34 70.6 °F 51.5 °F 29.81 in WNW 4.3 mph 19 mph 50.9% 0.00 in 72 W/m2
12:39 70.9 °F 50.3 °F 29.81 in WNW 6.2 mph 19 mph 48.1% 0.00 in 63 W/m2
12:44 70.8 °F 49.4 °F 29.81 in WNW 7.7 mph 19 mph 46.7% 0.00 in 69 W/m2
12:49 70.4 °F 49.5 °F 29.81 in WNW 7.4 mph 19 mph 47.4% 0.00 in 105 W/m2
12:54 70.3 °F 50 °F 29.81 in WNW 5.4 mph 19 mph 48.5% 0.00 in 118 W/m2
12:59 70.3 °F 49.6 °F 29.81 in WNW 7.3 mph 19 mph 47.8% 0.00 in 207 W/m2
13:04 70.5 °F 49.4 °F 29.80 in West 6.2 mph 19 mph 47.2% 0.00 in 666 W/m2
13:09 70.6 °F 49.9 °F 29.80 in NW 5.5 mph 18 mph 47.9% 0.00 in 350 W/m2
13:14 70.7 °F 49.5 °F 29.80 in WNW 3.6 mph 18 mph 47% 0.00 in 221 W/m2
13:19 70.8 °F 50.3 °F 29.80 in NW 3.8 mph 18 mph 48.4% 0.00 in 163 W/m2
13:24 70.9 °F 51.2 °F 29.80 in West 6.2 mph 18 mph 49.7% 0.00 in 142 W/m2
13:29 71.1 °F 51 °F 29.79 in WNW 6.6 mph 18 mph 49% 0.00 in 44 W/m2
13:34 71.1 °F 51.6 °F 29.79 in West 4.5 mph 18 mph 50.1% 0.00 in 35 W/m2
13:39 71.2 °F 51.2 °F 29.79 in WNW 7.1 mph 16 mph 49.3% 0.00 in 257 W/m2
13:44 71.1 °F 50.6 °F 29.79 in WNW 7.2 mph 16 mph 48.4% 0.00 in 70 W/m2
13:49 71 °F 51 °F 29.79 in West 5.9 mph 16 mph 49.3% 0.00 in 63 W/m2
13:54 71 °F 51.3 °F 29.79 in WNW 4.7 mph 16 mph 49.8% 0.00 in 93 W/m2
13:59 71.1 °F 51.4 °F 29.79 in WNW 6.3 mph 16 mph 49.8% 0.00 in 63 W/m2
14:04 71.1 °F 50.7 °F 29.79 in NW 9.2 mph 22 mph 48.5% 0.00 in 39 W/m2
14:09 70.8 °F 50.1 °F 29.79 in NW 6.6 mph 22 mph 48% 0.00 in 40 W/m2
14:14 70.7 °F 51.2 °F 29.79 in WNW 2.7 mph 22 mph 50.1% 0.00 in 46 W/m2
14:19 70.9 °F 51.6 °F 29.79 in WNW 6.3 mph 22 mph 50.5% 0.00 in 49 W/m2
14:24 71.1 °F 51.3 °F 29.79 in WNW 7.3 mph 22 mph 49.6% 0.00 in 79 W/m2
14:29 71.1 °F 51 °F 29.79 in WNW 5.5 mph 22 mph 49% 0.00 in 95 W/m2
14:34 70.7 °F 50.1 °F 29.79 in WNW 6 mph 22 mph 48% 0.00 in 97 W/m2
14:39 70.2 °F 50.2 °F 29.79 in NW 3.2 mph 15 mph 49% 0.00 in 179 W/m2
14:44 70 °F 50.4 °F 29.79 in NW 3.7 mph 15 mph 49.8% 0.00 in 316 W/m2
14:49 70.2 °F 50.7 °F 29.79 in WNW 5.5 mph 15 mph 50% 0.00 in 316 W/m2
14:54 70.7 °F 51.1 °F 29.79 in NW 5.2 mph 15 mph 49.9% 0.00 in 163 W/m2
14:59 70.9 °F 50.2 °F 29.79 in NW 5.1 mph 15 mph 48% 0.00 in 118 W/m2
15:04 70.8 °F 50.4 °F 29.79 in NW 4.1 mph 15 mph 48.5% 0.00 in 127 W/m2
15:09 70.8 °F 50.8 °F 29.79 in WNW 4.1 mph 13 mph 49.2% 0.00 in 125 W/m2
15:14 71 °F 51.2 °F 29.79 in NW 4.5 mph 13 mph 49.5% 0.00 in 155 W/m2
15:19 71.2 °F 51.4 °F 29.79 in WNW 6.3 mph 14 mph 49.6% 0.00 in 204 W/m2
15:24 71.5 °F 51.6 °F 29.80 in WNW 6 mph 15 mph 49.4% 0.00 in 480 W/m2
15:29 71.4 °F 50.3 °F 29.80 in NW 6.5 mph 16 mph 47.3% 0.00 in 114 W/m2
15:34 70.9 °F 50.1 °F 29.80 in WNW 6.7 mph 16 mph 47.7% 0.00 in 49 W/m2
15:39 70.3 °F 50 °F 29.80 in NW 2.9 mph 14 mph 48.5% 0.00 in 104 W/m2
15:44 69.8 °F 50.4 °F 29.80 in WNW 4.2 mph 14 mph 50.1% 0.00 in 566 W/m2
15:49 69.5 °F 49.7 °F 29.80 in WNW 4.8 mph 14 mph 49.3% 0.00 in 566 W/m2
15:54 69.5 °F 49.8 °F 29.80 in NW 3.3 mph 14 mph 49.6% 0.00 in 49 W/m2
15:59 69.3 °F 50.1 °F 29.80 in NW 5.1 mph 14 mph 50.4% 0.00 in 56 W/m2
16:00 69.2 °F 50.3 °F 29.80 in NNW 5 mph 14 mph 51% 0.00 in 56 W/m2
16:09 69.4 °F 50.9 °F 29.80 in NW 2.7 mph 12 mph 51.8% 0.00 in 51 W/m2
16:14 69.7 °F 50.7 °F 29.80 in WNW 4.1 mph 12 mph 50.8% 0.00 in 40 W/m2
16:19 69.9 °F 51.1 °F 29.80 in WNW 2 mph 12 mph 51.1% 0.00 in 40 W/m2
16:24 70.2 °F 51.2 °F 29.80 in WNW 4 mph 12 mph 50.9% 0.00 in 37 W/m2
16:29 70.3 °F 51.1 °F 29.80 in NW 4.8 mph 14 mph 50.6% 0.00 in 28 W/m2
16:34 70.2 °F 50.8 °F 29.80 in West 2 mph 14 mph 50.3% 0.00 in 30 W/m2
16:39 70.2 °F 50.7 °F 29.80 in WNW 5.7 mph 14 mph 50.1% 0.00 in 37 W/m2
16:44 70.1 °F 50.1 °F 29.80 in WNW 4.1 mph 14 mph 49% 0.00 in 26 W/m2
16:49 70.1 °F 50.1 °F 29.81 in NW 2.5 mph 14 mph 49.1% 0.00 in 25 W/m2
16:54 70.1 °F 50.3 °F 29.81 in WNW 4.7 mph 14 mph 49.4% 0.00 in 25 W/m2
16:59 70.1 °F 50.4 °F 29.81 in NW 3.8 mph 14 mph 49.7% 0.00 in 23 W/m2
17:04 70 °F 50.1 °F 29.81 in WNW 4.3 mph 14 mph 49.2% 0.00 in 23 W/m2
17:09 70 °F 50.1 °F 29.81 in NW 3.1 mph 13 mph 49.3% 0.00 in 23 W/m2
17:14 70 °F 50 °F 29.81 in WNW 3.1 mph 13 mph 49% 0.00 in 21 W/m2
17:19 69.9 °F 50.4 °F 29.82 in WNW 3.5 mph 13 mph 49.9% 0.00 in 21 W/m2
17:24 69.8 °F 50.1 °F 29.82 in NW 3.7 mph 13 mph 49.5% 0.00 in 21 W/m2
17:29 69.7 °F 50.5 °F 29.82 in NNW 1 mph 13 mph 50.5% 0.00 in 19 W/m2
17:34 69.6 °F 50.4 °F 29.82 in NW 2 mph 13 mph 50.4% 0.00 in 19 W/m2
17:39 69.5 °F 50.7 °F 29.82 in WNW 1.5 mph 9 mph 51.3% 0.00 in 18 W/m2
17:44 69.3 °F 50.2 °F 29.82 in WNW 3.6 mph 9 mph 50.5% 0.00 in 18 W/m2
17:49 69.1 °F 50.3 °F 29.82 in WNW 1.5 mph 9 mph 51% 0.00 in 16 W/m2
17:54 68.9 °F 50.4 °F 29.82 in WNW 1.8 mph 9 mph 51.6% 0.00 in 14 W/m2
17:59 68.7 °F 50.3 °F 29.82 in West 0.2 mph 9 mph 51.9% 0.00 in 14 W/m2
18:04 68.5 °F 50.5 °F 29.82 in West 0.3 mph 9 mph 52.6% 0.00 in 12 W/m2
18:09 68.3 °F 50.5 °F 29.83 in Calm   5 mph 52.8% 0.00 in 11 W/m2
18:14 68.1 °F 50.7 °F 29.83 in West 0.3 mph 5 mph 53.7% 0.00 in 9 W/m2
18:19 67.9 °F 50.7 °F 29.83 in Calm   5 mph 54.2% 0.00 in 9 W/m2
18:24 67.6 °F 50.9 °F 29.83 in Calm   5 mph 55% 0.00 in 7 W/m2
18:29 67.3 °F 50.7 °F 29.83 in West 0.1 mph 5 mph 55.2% 0.00 in 5 W/m2
18:34 67 °F 50.8 °F 29.83 in Calm   5 mph 56% 0.00 in 0 W/m2
18:39 66.7 °F 50.6 °F 29.83 in Calm     56.3% 0.00 in 0 W/m2
18:44 66.4 °F 50.9 °F 29.83 in Calm     57.5% 0.00 in 0 W/m2
18:49 66 °F 50.9 °F 29.84 in Calm   1 mph 58.1% 0.00 in 0 W/m2
18:54 65.7 °F 51.2 °F 29.84 in Calm   1 mph 59.4% 0.00 in 0 W/m2
18:59 65.3 °F 51.1 °F 29.84 in Calm   1 mph 60% 0.00 in 0 W/m2
19:04 65 °F 51.2 °F 29.84 in Calm   1 mph 60.9% 0.00 in 0 W/m2
19:09 64.6 °F 51.3 °F 29.84 in Calm     61.9% 0.00 in 0 W/m2
19:14 64.3 °F 51.3 °F 29.84 in Calm   1 mph 62.7% 0.00 in 0 W/m2
19:19 64 °F 51.3 °F 29.84 in Calm   1 mph 63.4% 0.00 in 0 W/m2
19:24 63.7 °F 52.1 °F 29.84 in Calm   1 mph 65.9% 0.00 in 0 W/m2
19:29 63.5 °F 52.4 °F 29.84 in Calm   1 mph 67.2% 0.00 in 0 W/m2
19:34 63.2 °F 52.4 °F 29.85 in Calm   1 mph 67.9% 0.00 in 0 W/m2
19:39 63 °F 52.3 °F 29.85 in Calm     68% 0.00 in 0 W/m2
19:44 62.8 °F 52.4 °F 29.85 in Calm     68.7% 0.00 in 0 W/m2
19:46 62.7 °F 52.4 °F 29.85 in Calm     69% 0.00 in 0 W/m2
20:09 62.1 °F 52.1 °F 29.86 in Calm     69.8% 0.00 in 0 W/m2
20:14 61.8 °F 52 °F 29.86 in West 0.1 mph 2 mph 70% 0.00 in 0 W/m2
20:19 61.5 °F 51.7 °F 29.87 in Calm   2 mph 70% 0.00 in 0 W/m2
20:24 61.2 °F 51.6 °F 29.87 in Calm   2 mph 70.5% 0.00 in 0 W/m2
20:29 60.9 °F 51.5 °F 29.87 in Calm   2 mph 71.1% 0.00 in 0 W/m2
20:34 60.6 °F 51.5 °F 29.87 in Calm   2 mph 72% 0.00 in 0 W/m2
20:39 60.3 °F 51.6 °F 29.87 in Calm     72.9% 0.00 in 0 W/m2
20:44 60 °F 51.6 °F 29.87 in Calm     73.5% 0.00 in 0 W/m2
20:49 59.8 °F 51.5 °F 29.87 in Calm     74.1% 0.00 in 0 W/m2
20:54 59.5 °F 51.6 °F 29.88 in Calm     75% 0.00 in 0 W/m2
20:59 59.2 °F 51.4 °F 29.88 in Calm   1 mph 75.3% 0.00 in 0 W/m2
21:04 59 °F 51.5 °F 29.88 in Calm   1 mph 76% 0.00 in 0 W/m2
21:09 58.8 °F 51.4 °F 29.88 in West 0.1 mph 2 mph 76.2% 0.00 in 0 W/m2
21:14 58.7 °F 51.4 °F 29.88 in Calm   2 mph 76.8% 0.00 in 0 W/m2
21:19 58.5 °F 51.4 °F 29.88 in Calm   2 mph 77% 0.00 in 0 W/m2
21:24 58.4 °F 51.2 °F 29.88 in Calm   2 mph 77% 0.00 in 0 W/m2
21:29 58.3 °F 51.1 °F 29.88 in Calm   2 mph 77% 0.00 in 0 W/m2
21:34 58.2 °F 51 °F 29.88 in West 0.1 mph 3 mph 77% 0.00 in 0 W/m2
21:39 58.1 °F 51 °F 29.88 in Calm   3 mph 77% 0.00 in 0 W/m2
21:44 58.1 °F 50.9 °F 29.88 in West 0.2 mph 3 mph 77% 0.00 in 0 W/m2
21:49 58.1 °F 50.9 °F 29.88 in West 0.1 mph 3 mph 77% 0.00 in 0 W/m2
21:54 58 °F 50.8 °F 29.88 in Calm   3 mph 77% 0.00 in 0 W/m2
21:59 58 °F 50.8 °F 29.89 in Calm   3 mph 77% 0.00 in 0 W/m2
22:04 57.9 °F 50.8 °F 29.89 in Calm   3 mph 77% 0.00 in 0 W/m2
22:09 57.9 °F 50.8 °F 29.89 in Calm     77.1% 0.00 in 0 W/m2
22:14 57.8 °F 51 °F 29.89 in Calm     78% 0.00 in 0 W/m2
22:19 57.7 °F 50.9 °F 29.89 in Calm     78% 0.00 in 0 W/m2
22:24 57.6 °F 50.8 °F 29.89 in Calm     78% 0.00 in 0 W/m2
22:29 57.5 °F 50.8 °F 29.89 in Calm     78.4% 0.00 in 0 W/m2
22:34 57.4 °F 50.9 °F 29.89 in Calm     79% 0.00 in 0 W/m2
22:39 57.3 °F 50.8 °F 29.89 in Calm     79% 0.00 in 0 W/m2
22:44 57.2 °F 51.1 °F 29.89 in Calm     80% 0.00 in 0 W/m2
22:49 57.1 °F 51 °F 29.89 in Calm     80% 0.00 in 0 W/m2
22:54 56.9 °F 50.8 °F 29.89 in Calm     80% 0.00 in 0 W/m2
22:59 56.8 °F 50.9 °F 29.89 in Calm   1 mph 80.6% 0.00 in 0 W/m2
23:04 56.6 °F 50.9 °F 29.89 in Calm   1 mph 81% 0.00 in 0 W/m2
23:09 56.5 °F 50.8 °F 29.89 in Calm     81% 0.00 in 0 W/m2
23:14 56.5 °F 50.7 °F 29.89 in Calm     81% 0.00 in 0 W/m2
23:19 56.5 °F 50.7 °F 29.89 in Calm     81% 0.00 in 0 W/m2
23:24 56.4 °F 50.7 °F 29.89 in Calm     81% 0.00 in 0 W/m2
23:29 56.4 °F 50.7 °F 29.89 in West 0.2 mph 1 mph 81% 0.00 in 0 W/m2
23:34 56.3 °F 50.6 °F 29.89 in Calm   1 mph 81% 0.00 in 0 W/m2
23:39 56.3 °F 50.6 °F 29.89 in West 0.4 mph 3 mph 81% 0.00 in 0 W/m2
23:44 56.3 °F 50.8 °F 29.90 in Calm   3 mph 81.8% 0.00 in 0 W/m2
23:49 56.2 °F 50.8 °F 29.89 in West 0.3 mph 4 mph 82% 0.00 in 0 W/m2
23:54 56.2 °F 50.8 °F 29.89 in West 0.3 mph 4 mph 82% 0.00 in 0 W/m2
23:59 56.2 °F 50.5 °F 29.89 in West 0.1 mph 4 mph 81.2% 0.00 in 0 W/m2
Hartford County Weather
Compliments of Weather Underground - 2 mb